Time;durP1;ratioP1;P1;durP2;ratioP2;P2;SDS_P1;SDS_P2;PMS_P1;PMS_P2;Temp;Humidity;BMP_temperature;BMP_pressure;BME280_temperature;BME280_humidity;BME280_pressure;Samples;Min_cycle;Max_cycle;Signal;HPM_P1;HPM_P2
2022/11/25 00:01:14;;;;;;;6.87;2.87;;;9.80;99.90;;;;;;4915747;29;20515;-71
2022/11/25 00:03:41;;;;;;;19.87;3.10;;;9.70;99.90;;;;;;4916614;29;20175;-71
2022/11/25 00:06:13;;;;;;;14.00;3.33;;;9.70;99.90;;;;;;4916440;29;20436;-71
2022/11/25 00:08:40;;;;;;;9.40;2.70;;;9.90;99.90;;;;;;4915833;29;20424;-71
2022/11/25 00:11:06;;;;;;;13.73;3.20;;;9.90;99.90;;;;;;4915303;29;20942;-71
2022/11/25 00:13:32;;;;;;;12.53;2.30;;;9.90;99.90;;;;;;4916004;29;20534;-78
2022/11/25 00:16:06;;;;;;;11.87;3.00;;;10.00;99.90;;;;;;4916347;29;20980;-73
2022/11/25 00:18:32;;;;;;;13.57;2.90;;;9.90;99.90;;;;;;4916648;29;20466;-73
2022/11/25 00:20:58;;;;;;;13.53;2.97;;;9.90;99.90;;;;;;4906360;29;20473;-73
2022/11/25 00:23:24;;;;;;;11.00;2.80;;;9.80;99.90;;;;;;4896847;29;20253;-76
2022/11/25 00:25:49;;;;;;;9.27;2.87;;;9.90;99.90;;;;;;4897485;29;20511;-73
2022/11/25 00:28:17;;;;;;;19.23;3.37;;;9.90;99.90;;;;;;4897443;29;20259;-74
2022/11/25 00:30:42;;;;;;;9.77;3.40;;;10.00;99.90;;;;;;4897346;29;20507;-78
2022/11/25 00:33:08;;;;;;;13.53;3.23;;;10.10;99.90;;;;;;4896485;29;20512;-77
2022/11/25 00:35:34;;;;;;;12.30;2.97;;;10.20;99.90;;;;;;4895938;29;20176;-74
2022/11/25 00:37:59;;;;;;;11.00;2.43;;;10.30;99.90;;;;;;4895783;29;20220;-74
2022/11/25 00:40:25;;;;;;;6.03;2.43;;;10.30;99.90;;;;;;4895274;29;20487;-73
2022/11/25 00:45:35;;;;;;;12.70;2.97;;;10.40;99.90;;;;;;4896309;29;20186;-73
2022/11/25 00:48:00;;;;;;;8.33;2.83;;;10.30;99.90;;;;;;4896765;29;20539;-71
2022/11/25 00:50:26;;;;;;;8.67;2.60;;;10.30;99.90;;;;;;4896671;29;20180;-71
2022/11/25 00:52:52;;;;;;;13.17;3.97;;;10.30;99.90;;;;;;4896921;29;20251;-71
2022/11/25 00:55:17;;;;;;;17.97;3.17;;;10.40;99.90;;;;;;4897049;29;20180;-71
2022/11/25 00:57:43;;;;;;;9.80;3.33;;;10.40;99.90;;;;;;4896834;29;20224;-72
2022/11/25 01:00:10;;;;;;;17.90;2.80;;;10.30;99.90;;;;;;4896677;29;20551;-71
2022/11/25 01:02:36;;;;;;;6.80;2.57;;;10.40;99.90;;;;;;4895601;29;20203;-71
2022/11/25 01:05:02;;;;;;;6.10;2.70;;;10.40;99.90;;;;;;4896966;29;20936;-71
2022/11/25 01:07:27;;;;;;;5.97;3.73;;;10.50;99.90;;;;;;4896688;29;20556;-71
2022/11/25 01:09:53;;;;;;;8.43;2.73;;;10.50;99.90;;;;;;4897233;29;20176;-71
2022/11/25 01:12:18;;;;;;;8.37;2.40;;;10.60;99.90;;;;;;4880113;29;20660;-71
2022/11/25 01:14:44;;;;;;;8.00;2.70;;;10.50;99.90;;;;;;4896630;29;20240;-71
2022/11/25 01:17:09;;;;;;;9.70;2.70;;;10.50;99.90;;;;;;4896829;29;20184;-71
2022/11/25 01:19:38;;;;;;;7.23;2.80;;;10.60;99.90;;;;;;4896844;29;20190;-71
2022/11/25 01:22:06;;;;;;;6.90;2.10;;;10.70;99.90;;;;;;4896743;29;20240;-71
2022/11/25 01:24:31;;;;;;;9.23;2.60;;;10.70;99.90;;;;;;4896817;29;20433;-71
2022/11/25 01:26:57;;;;;;;12.07;3.50;;;10.70;99.90;;;;;;4896751;29;20469;-70
2022/11/25 01:29:23;;;;;;;9.20;3.27;;;10.70;99.90;;;;;;4896160;29;20188;-72
2022/11/25 01:31:49;;;;;;;7.80;2.90;;;10.70;99.90;;;;;;4897640;29;20688;-72
2022/11/25 05:32:41;;;;;;;8.20;3.00;;;10.40;99.90;;;;;;4897403;29;21034;-74
2022/11/25 05:35:07;;;;;;;9.87;4.13;;;10.40;99.90;;;;;;4900587;29;20424;-80
2022/11/25 05:37:32;;;;;;;13.00;3.90;;;10.40;99.90;;;;;;4900305;29;20189;-77
2022/11/25 05:39:58;;;;;;;15.30;4.87;;;10.40;99.90;;;;;;4900352;29;20177;-83
2022/11/25 05:42:23;;;;;;;10.87;3.70;;;10.40;99.90;;;;;;4900010;29;20219;-81
2022/11/25 05:44:49;;;;;;;7.27;2.87;;;10.50;99.90;;;;;;4900172;29;20181;-74
2022/11/25 05:47:14;;;;;;;6.23;2.57;;;10.50;99.90;;;;;;4897034;29;20176;-77
2022/11/25 05:49:40;;;;;;;8.47;2.90;;;10.50;99.90;;;;;;4870192;29;20577;-74
2022/11/25 05:52:05;;;;;;;11.90;3.37;;;10.50;99.90;;;;;;4873063;29;20220;-75
2022/11/25 05:54:31;;;;;;;12.90;3.30;;;10.50;99.90;;;;;;4891432;29;20173;-74
2022/11/25 05:56:56;;;;;;;22.47;3.80;;;10.50;99.90;;;;;;4899886;29;20203;-75
2022/11/25 05:59:22;;;;;;;14.03;3.60;;;10.40;99.90;;;;;;4899907;29;20328;-74
2022/11/25 06:01:47;;;;;;;8.47;3.10;;;10.40;99.90;;;;;;4899608;29;20252;-73
2022/11/25 06:04:13;;;;;;;9.23;3.50;;;10.40;99.90;;;;;;4899895;29;20215;-76
2022/11/25 06:06:38;;;;;;;9.00;2.97;;;10.40;99.90;;;;;;4899949;29;20189;-75
2022/11/25 06:09:04;;;;;;;7.73;3.00;;;10.40;99.90;;;;;;4899884;29;20177;-74
2022/11/25 06:11:30;;;;;;;8.47;3.17;;;10.40;99.90;;;;;;4899844;29;20184;-75
2022/11/25 06:13:57;;;;;;;14.23;3.50;;;10.40;99.90;;;;;;4893979;29;20221;-75
2022/11/25 06:16:22;;;;;;;7.93;3.57;;;10.40;99.90;;;;;;4889894;29;20176;-74
2022/11/25 06:18:49;;;;;;;5.90;3.27;;;10.40;99.90;;;;;;4890527;29;20440;-73
2022/11/25 06:21:15;;;;;;;10.20;3.97;;;10.30;99.90;;;;;;4883921;29;20216;-74
2022/11/25 06:23:41;;;;;;;11.93;4.40;;;10.40;99.90;;;;;;4885442;29;20429;-74
2022/11/25 06:26:11;;;;;;;16.40;3.10;;;10.40;99.90;;;;;;4890384;29;20449;-75
2022/11/25 06:28:37;;;;;;;19.03;3.70;;;10.40;99.90;;;;;;4888751;29;20217;-75
2022/11/25 06:31:13;;;;;;;10.10;2.73;;;10.40;99.90;;;;;;4889835;29;20948;-74
2022/11/25 06:33:39;;;;;;;11.10;3.50;;;10.30;99.90;;;;;;4888814;29;20213;-74
2022/11/25 06:36:07;;;;;;;8.00;3.20;;;10.40;99.90;;;;;;4889526;29;20429;-74
2022/11/25 06:38:33;;;;;;;7.57;2.90;;;10.40;99.90;;;;;;4893379;29;20185;-74
2022/11/25 06:41:03;;;;;;;12.73;3.90;;;10.40;99.90;;;;;;4899199;29;20916;-74
2022/11/25 06:43:29;;;;;;;15.07;4.10;;;10.30;99.90;;;;;;4899303;29;20436;-75
2022/11/25 06:46:00;;;;;;;9.20;3.17;;;10.30;99.90;;;;;;4882476;29;20560;-75
2022/11/25 06:48:27;;;;;;;12.10;3.20;;;10.20;99.90;;;;;;4898924;29;20448;-75
2022/11/25 06:50:56;;;;;;;8.83;3.53;;;10.30;99.90;;;;;;4899101;29;20802;-74
2022/11/25 06:53:22;;;;;;;13.33;3.50;;;10.30;99.90;;;;;;4895825;29;20515;-75
2022/11/25 06:55:48;;;;;;;9.73;3.90;;;10.30;99.90;;;;;;4879795;29;20446;-75
2022/11/25 06:58:13;;;;;;;10.40;3.50;;;10.30;99.90;;;;;;4880122;29;20184;-75
2022/11/25 07:00:39;;;;;;;11.20;4.47;;;10.30;99.90;;;;;;4880129;29;20612;-75
2022/11/25 07:03:04;;;;;;;10.17;3.70;;;10.20;99.90;;;;;;4880065;29;20185;-74
2022/11/25 07:05:30;;;;;;;10.30;4.50;;;10.20;99.90;;;;;;4880286;29;20173;-75
2022/11/25 07:07:56;;;;;;;6.87;2.80;;;10.10;99.90;;;;;;4879604;29;20529;-75
2022/11/25 07:10:22;;;;;;;13.03;4.00;;;10.10;99.90;;;;;;4879770;29;20212;-75
2022/11/25 07:12:47;;;;;;;8.87;3.50;;;10.00;99.90;;;;;;4885090;29;20889;-74
2022/11/25 07:15:13;;;;;;;10.10;3.70;;;10.00;99.90;;;;;;4889474;29;20544;-81
2022/11/25 07:17:38;;;;;;;7.90;3.90;;;10.00;99.90;;;;;;4889026;29;20625;-80
2022/11/25 07:20:04;;;;;;;11.50;3.73;;;10.00;99.90;;;;;;4888136;29;20180;-79
2022/11/25 07:22:30;;;;;;;8.00;3.67;;;9.90;99.90;;;;;;4889117;29;20181;-77
2022/11/25 07:24:56;;;;;;;13.73;3.90;;;9.90;99.90;;;;;;4887818;29;20436;-78
2022/11/25 07:27:21;;;;;;;8.43;3.93;;;9.90;99.90;;;;;;4889701;29;20187;-77
2022/11/25 07:29:48;;;;;;;11.30;3.77;;;9.90;99.90;;;;;;4889071;29;20192;-77
2022/11/25 07:32:13;;;;;;;7.40;3.13;;;10.00;99.90;;;;;;4887685;29;20236;-77
2022/11/25 07:34:39;;;;;;;13.37;3.77;;;9.90;99.90;;;;;;4888576;29;20918;-76
2022/11/25 07:37:04;;;;;;;10.00;3.97;;;9.90;99.90;;;;;;4887607;29;20180;-76
2022/11/25 07:39:30;;;;;;;13.37;4.13;;;9.90;99.90;;;;;;4890702;29;20177;-75
2022/11/25 07:41:56;;;;;;;8.40;3.67;;;9.90;99.90;;;;;;4889700;29;20568;-76
2022/11/25 07:44:21;;;;;;;11.03;3.70;;;9.90;99.90;;;;;;4888216;29;20185;-76
2022/11/25 07:46:48;;;;;;;9.57;4.40;;;9.90;99.90;;;;;;4892587;29;20216;-75
2022/11/25 07:49:16;;;;;;;13.37;4.10;;;10.00;99.90;;;;;;4889500;29;20204;-75
2022/11/25 07:51:50;;;;;;;13.00;5.20;;;10.00;99.90;;;;;;4889296;29;20541;-75
2022/11/25 07:54:16;;;;;;;8.70;3.73;;;10.00;99.90;;;;;;4887419;29;20446;-75
2022/11/25 07:56:43;;;;;;;9.10;4.30;;;10.00;99.90;;;;;;4886599;29;20795;-76
2022/11/25 07:59:13;;;;;;;8.23;3.20;;;10.00;99.90;;;;;;4887781;29;21017;-73
2022/11/25 08:01:39;;;;;;;7.17;3.83;;;10.00;99.90;;;;;;4887121;29;20444;-73
2022/11/25 08:04:06;;;;;;;8.20;4.23;;;10.00;99.90;;;;;;4888792;29;20940;-73
2022/11/25 08:06:35;;;;;;;9.90;4.40;;;10.00;99.90;;;;;;4888118;29;20183;-72
2022/11/25 08:09:01;;;;;;;11.83;4.53;;;10.00;99.90;;;;;;4886858;29;20480;-73
2022/11/25 08:11:29;;;;;;;14.23;3.80;;;10.00;99.90;;;;;;4888149;29;20461;-72
2022/11/25 08:13:56;;;;;;;8.20;4.30;;;10.10;99.90;;;;;;4885998;29;20413;-72
2022/11/25 08:16:26;;;;;;;9.37;3.63;;;10.10;99.90;;;;;;4888783;29;20480;-71
2022/11/25 08:18:53;;;;;;;13.73;5.47;;;10.10;99.90;;;;;;4878866;29;20845;-72
2022/11/25 08:21:19;;;;;;;10.70;4.13;;;10.10;99.90;;;;;;4881079;29;20438;-73
2022/11/25 08:23:48;;;;;;;11.17;4.00;;;10.10;99.90;;;;;;4878926;29;20438;-73
2022/11/25 08:26:17;;;;;;;6.50;3.87;;;10.10;99.90;;;;;;4887709;29;20184;-73
2022/11/25 08:28:43;;;;;;;9.67;3.50;;;10.10;99.90;;;;;;4882789;29;20972;-72
2022/11/25 08:31:15;;;;;;;7.00;4.10;;;10.10;99.90;;;;;;4883356;29;20556;-73
2022/11/25 08:33:41;;;;;;;13.27;5.10;;;10.10;99.90;;;;;;4894629;29;20476;-73
2022/11/25 08:36:08;;;;;;;12.47;4.17;;;10.20;99.90;;;;;;4897260;29;20431;-73
2022/11/25 08:38:33;;;;;;;8.07;4.00;;;10.20;99.90;;;;;;4897096;29;20445;-73
2022/11/25 08:41:00;;;;;;;9.87;5.07;;;10.20;99.90;;;;;;4896680;29;20795;-73
2022/11/25 08:43:26;;;;;;;13.70;4.70;;;10.20;99.90;;;;;;4897009;29;20220;-73
2022/11/25 08:45:51;;;;;;;11.80;5.40;;;10.20;99.90;;;;;;4897263;29;20460;-73
2022/11/25 08:48:19;;;;;;;7.33;4.60;;;10.20;99.90;;;;;;4896719;29;20491;-73
2022/11/25 08:50:48;;;;;;;11.30;4.93;;;10.20;99.90;;;;;;4890849;29;20178;-73
2022/11/25 08:53:14;;;;;;;13.23;4.17;;;10.20;99.90;;;;;;4885717;29;20484;-73
2022/11/25 08:55:39;;;;;;;10.13;4.43;;;10.20;99.90;;;;;;4885635;29;20853;-73
2022/11/25 08:58:08;;;;;;;13.70;5.23;;;10.30;99.90;;;;;;4887812;29;20644;-73
2022/11/25 09:00:35;;;;;;;9.90;4.50;;;10.30;99.90;;;;;;4894306;29;20176;-73
2022/11/25 09:03:01;;;;;;;8.70;4.10;;;10.40;99.90;;;;;;4883698;29;20452;-73
2022/11/25 09:05:27;;;;;;;13.90;5.13;;;10.40;99.90;;;;;;4888230;29;20436;-73
2022/11/25 09:07:52;;;;;;;7.37;4.83;;;10.40;99.90;;;;;;4886694;29;20185;-73
2022/11/25 09:10:18;;;;;;;10.77;4.80;;;10.50;99.90;;;;;;4887197;29;20561;-73
2022/11/25 09:12:44;;;;;;;12.17;3.90;;;10.50;99.90;;;;;;4887902;29;20582;-73
2022/11/25 09:15:10;;;;;;;7.10;3.40;;;10.50;99.90;;;;;;4887255;29;20187;-73
2022/11/25 09:17:36;;;;;;;11.30;4.90;;;10.60;99.90;;;;;;4887508;29;20185;-73
2022/11/25 09:20:04;;;;;;;10.60;3.50;;;10.60;99.90;;;;;;4886180;29;20434;-73
2022/11/25 09:22:30;;;;;;;10.00;3.90;;;10.70;99.90;;;;;;4885294;29;20492;-73
2022/11/25 09:24:55;;;;;;;12.53;4.67;;;10.70;99.90;;;;;;4886410;29;20436;-73
2022/11/25 09:27:21;;;;;;;8.17;4.67;;;10.80;99.90;;;;;;4887695;29;20437;-73
2022/11/25 09:29:46;;;;;;;18.70;4.60;;;10.90;99.90;;;;;;4886551;29;20181;-73
2022/11/25 09:32:12;;;;;;;8.00;4.20;;;10.90;99.90;;;;;;4886657;29;20231;-72
2022/11/25 09:34:38;;;;;;;14.40;4.10;;;11.10;99.90;;;;;;4887976;29;20178;-72
2022/11/25 09:37:03;;;;;;;8.30;3.40;;;11.10;99.90;;;;;;4895854;29;20704;-72
2022/11/25 09:39:29;;;;;;;6.00;3.50;;;11.30;99.90;;;;;;4895498;29;20184;-73
2022/11/25 09:48:37;;;;;;;8.87;3.70;;;11.50;99.90;;;;;;4896483;29;20432;-75
2022/11/25 09:51:12;;;;;;;8.57;4.70;;;11.50;99.90;;;;;;4896027;29;20785;-72
2022/11/25 09:53:46;;;;;;;10.13;4.20;;;11.60;99.90;;;;;;4889703;29;20480;-73
2022/11/25 09:56:31;;;;;;;11.80;5.00;;;11.70;99.90;;;;;;4890335;29;20873;-75
2022/11/25 09:59:09;;;;;;;10.00;3.57;;;11.70;99.90;;;;;;4890877;29;20445;-75
2022/11/25 10:01:48;;;;;;;7.07;3.67;;;11.80;99.90;;;;;;4890883;29;20464;-76
2022/11/25 10:04:44;;;;;;;11.53;4.13;;;12.00;99.90;;;;;;4890408;29;20429;-74
2022/11/25 10:07:17;;;;;;;11.50;3.93;;;12.00;99.90;;;;;;4844778;29;20833;-74
2022/11/25 10:09:42;;;;;;;5.67;2.77;;;12.00;99.90;;;;;;4888557;29;20438;-74
2022/11/25 10:12:32;;;;;;;7.33;2.97;;;12.10;99.90;;;;;;4890350;29;20472;-73
2022/11/25 10:15:06;;;;;;;5.40;3.27;;;12.10;99.90;;;;;;4890649;29;20189;-72
2022/11/25 10:17:32;;;;;;;6.67;3.17;;;12.10;99.90;;;;;;4890181;29;20461;-73
2022/11/25 10:20:09;;;;;;;10.63;3.43;;;12.10;99.90;;;;;;4891428;29;20460;-74
2022/11/25 10:22:40;;;;;;;4.43;2.77;;;12.20;99.90;;;;;;4890318;29;20208;-73
2022/11/25 10:25:23;;;;;;;10.17;2.63;;;12.20;99.90;;;;;;4891302;29;20433;-73
2022/11/25 10:28:00;;;;;;;9.00;3.17;;;12.20;99.90;;;;;;4890742;29;20489;-73
2022/11/25 10:30:43;;;;;;;8.83;2.63;;;12.20;99.90;;;;;;4889927;29;20437;-74
2022/11/25 10:33:17;;;;;;;3.77;2.40;;;12.30;99.90;;;;;;4891507;29;20549;-74
2022/11/25 10:35:50;;;;;;;3.87;2.80;;;12.30;99.90;;;;;;4890430;29;20480;-73
2022/11/25 10:38:56;;;;;;;6.73;3.23;;;12.30;99.90;;;;;;4890452;29;20449;-73
2022/11/25 10:41:25;;;;;;;7.90;2.80;;;12.40;99.90;;;;;;4893846;29;20459;-74
2022/11/25 10:43:50;;;;;;;5.20;2.57;;;12.50;99.90;;;;;;4887894;29;20638;-74
2022/11/25 10:46:38;;;;;;;13.63;3.83;;;12.50;99.90;;;;;;4890138;29;20992;-73
2022/11/25 10:49:33;;;;;;;8.63;3.40;;;12.50;99.90;;;;;;4889498;29;20185;-71
2022/11/25 10:51:59;;;;;;;7.87;3.10;;;12.50;99.90;;;;;;4875000;29;20437;-72
2022/11/25 10:54:27;;;;;;;8.70;2.87;;;12.50;99.90;;;;;;4890127;29;20457;-72
2022/11/25 10:57:01;;;;;;;6.10;2.97;;;12.50;99.90;;;;;;4889751;29;21094;-73
2022/11/25 10:59:36;;;;;;;4.40;2.83;;;12.40;99.90;;;;;;4889873;29;20976;-73
2022/11/25 11:02:25;;;;;;;8.90;3.17;;;12.30;99.90;;;;;;4889940;29;20455;-73
2022/11/25 11:05:06;;;;;;;7.27;3.70;;;12.20;99.90;;;;;;4886943;29;20453;-72
2022/11/25 11:07:36;;;;;;;6.77;3.03;;;12.30;99.90;;;;;;4889844;29;20459;-72
2022/11/25 11:10:21;;;;;;;6.97;3.03;;;12.40;99.90;;;;;;4886977;29;20509;-75
2022/11/25 11:13:00;;;;;;;10.30;2.97;;;12.50;99.90;;;;;;4887694;29;20489;-75
2022/11/25 11:15:27;;;;;;;8.47;2.63;;;12.60;99.90;;;;;;4889415;29;20473;-75
2022/11/25 11:17:54;;;;;;;8.00;3.07;;;12.80;99.90;;;;;;4888054;29;20426;-75
2022/11/25 11:20:29;;;;;;;8.43;3.33;;;13.00;99.90;;;;;;4889362;29;20425;-76
2022/11/25 11:23:08;;;;;;;8.23;3.37;;;13.10;99.90;;;;;;4887904;29;20437;-76
2022/11/25 11:25:36;;;;;;;4.60;2.60;;;13.30;99.90;;;;;;4886069;29;20456;-73
2022/11/25 11:28:27;;;;;;;6.27;2.90;;;13.50;99.90;;;;;;4890428;29;20421;-79
2022/11/25 11:30:57;;;;;;;8.43;3.33;;;13.70;99.90;;;;;;4882557;29;20461;-73
2022/11/25 11:33:47;;;;;;;13.00;4.47;;;13.70;99.90;;;;;;4878945;29;20579;-73
2022/11/25 11:36:40;;;;;;;10.67;3.20;;;13.80;99.90;;;;;;4869665;29;20437;-72
2022/11/25 11:39:23;;;;;;;8.17;3.03;;;13.80;99.90;;;;;;4879890;29;20494;-73
2022/11/25 11:42:17;;;;;;;6.40;2.80;;;13.90;99.90;;;;;;4896866;29;20464;-73
2022/11/25 11:44:58;;;;;;;5.27;3.33;;;14.00;99.90;;;;;;4894446;29;20528;-75
2022/11/25 11:48:08;;;;;;;6.23;3.40;;;13.90;99.90;;;;;;4879499;29;20473;-74
2022/11/25 11:50:39;;;;;;;11.03;3.20;;;14.10;99.90;;;;;;4879320;29;20433;-74
2022/11/25 11:53:33;;;;;;;7.87;2.77;;;14.10;99.90;;;;;;4879242;29;20477;-73
2022/11/25 11:56:23;;;;;;;9.00;3.53;;;14.00;99.90;;;;;;4897542;29;20425;-73
2022/11/25 11:59:00;;;;;;;11.60;4.03;;;14.00;99.90;;;;;;4897815;29;20481;-73
2022/11/25 12:01:44;;;;;;;7.23;2.80;;;13.80;99.90;;;;;;4898123;29;20430;-72
2022/11/25 12:04:41;;;;;;;8.87;3.20;;;13.80;99.90;;;;;;4897728;29;20802;-73
2022/11/25 12:07:14;;;;;;;4.57;2.80;;;13.80;99.90;;;;;;4866832;29;20446;-73
2022/11/25 12:09:48;;;;;;;7.57;3.87;;;13.70;99.90;;;;;;4879935;29;20438;-72
2022/11/25 12:12:18;;;;;;;6.67;3.40;;;13.80;99.90;;;;;;4878844;29;20481;-73
2022/11/25 12:14:54;;;;;;;12.67;3.13;;;13.80;99.90;;;;;;4883979;29;20484;-72
2022/11/25 12:17:34;;;;;;;6.40;3.13;;;13.80;99.90;;;;;;4888719;29;20483;-77
2022/11/25 12:20:14;;;;;;;8.33;4.00;;;13.90;99.90;;;;;;4886706;29;20478;-76
2022/11/25 12:22:58;;;;;;;12.30;3.80;;;13.90;99.90;;;;;;4886764;29;20437;-79
2022/11/25 12:25:30;;;;;;;6.43;3.00;;;13.90;99.90;;;;;;4887285;29;20437;-78
2022/11/25 12:28:06;;;;;;;11.47;3.90;;;13.90;99.90;;;;;;4886791;29;20945;-78
2022/11/25 12:31:08;;;;;;;6.97;4.00;;;14.00;99.90;;;;;;4886953;29;20492;-75
2022/11/25 12:33:54;;;;;;;7.97;3.20;;;14.00;99.90;;;;;;4885896;29;20480;-73
2022/11/25 12:36:39;;;;;;;7.70;3.13;;;14.00;99.90;;;;;;4870694;29;20525;-75
2022/11/25 12:39:17;;;;;;;10.17;3.30;;;14.10;99.90;;;;;;4887951;29;20445;-73
2022/11/25 12:41:58;;;;;;;7.93;3.40;;;14.00;99.90;;;;;;4887682;29;20525;-74
2022/11/25 12:44:30;;;;;;;6.50;3.13;;;14.00;99.90;;;;;;4887714;29;20716;-74
2022/11/25 12:46:57;;;;;;;7.60;3.63;;;14.00;99.90;;;;;;4886652;29;21041;-72
2022/11/25 12:49:39;;;;;;;10.07;4.50;;;13.90;99.90;;;;;;4887562;29;20493;-73
2022/11/25 12:52:17;;;;;;;15.27;4.00;;;13.70;99.90;;;;;;4887608;29;20488;-73
2022/11/25 12:55:07;;;;;;;6.73;3.70;;;13.50;99.90;;;;;;4887336;29;20446;-73
2022/11/25 12:57:54;;;;;;;10.30;3.30;;;13.50;99.90;;;;;;4888235;29;20493;-72
2022/11/25 13:00:27;;;;;;;9.07;3.13;;;13.40;99.90;;;;;;4887169;29;20433;-73
2022/11/25 13:03:07;;;;;;;8.00;3.23;;;13.50;99.90;;;;;;4886305;29;20520;-72
2022/11/25 13:05:59;;;;;;;8.37;3.50;;;13.50;99.90;;;;;;4886284;29;20866;-77
2022/11/25 13:08:38;;;;;;;8.50;4.07;;;13.60;99.90;;;;;;4887761;29;20441;-76
2022/11/25 13:11:20;;;;;;;11.20;5.10;;;13.60;99.90;;;;;;4887428;29;20436;-77
2022/11/25 13:14:15;;;;;;;8.60;4.23;;;13.60;99.90;;;;;;4887798;29;20571;-76
2022/11/25 13:16:44;;;;;;;8.07;3.90;;;13.60;99.90;;;;;;4887091;29;20577;-77
2022/11/25 13:19:11;;;;;;;16.83;4.30;;;13.60;99.90;;;;;;4886527;29;20328;-74
2022/11/25 13:22:16;;;;;;;9.32;3.85;;;13.60;99.90;;;;;;4890956;29;20861;-74
2022/11/25 13:24:42;;;;;;;12.00;4.40;;;13.90;99.90;;;;;;4886784;29;20241;-73
2022/11/25 13:27:52;;;;;;;11.03;3.67;;;14.00;99.90;;;;;;4896767;29;20429;-74
2022/11/25 13:30:33;;;;;;;8.97;3.43;;;13.90;99.90;;;;;;4881320;29;20637;-73
2022/11/25 13:33:10;;;;;;;8.00;3.90;;;13.90;99.90;;;;;;4881617;29;20484;-71
2022/11/25 13:35:46;;;;;;;8.47;3.57;;;13.90;99.90;;;;;;4881690;29;20468;-71
2022/11/25 13:38:29;;;;;;;10.40;3.73;;;13.70;99.90;;;;;;4891449;29;20464;-70
2022/11/25 13:40:57;;;;;;;11.20;3.90;;;13.60;99.90;;;;;;4890373;29;20947;-70
2022/11/25 13:43:23;;;;;;;9.30;3.27;;;13.50;99.90;;;;;;4897174;29;20435;-69
2022/11/25 13:45:49;;;;;;;14.60;4.20;;;13.40;99.90;;;;;;4887287;29;20445;-71
2022/11/25 13:48:25;;;;;;;11.90;3.63;;;13.30;99.90;;;;;;4862803;29;20268;-72
2022/11/25 13:51:11;;;;;;;7.70;3.27;;;13.30;99.90;;;;;;4891776;29;20428;-70
2022/11/25 13:53:37;;;;;;;8.97;3.47;;;13.20;99.90;;;;;;4889285;29;20981;-70
2022/11/25 13:56:26;;;;;;;12.53;3.90;;;13.10;99.90;;;;;;4890094;29;20480;-70
2022/11/25 13:59:34;;;;;;;6.40;3.97;;;13.00;99.90;;;;;;4880034;29;20200;-70
2022/11/25 14:02:21;;;;;;;9.40;3.73;;;13.00;99.90;;;;;;4843614;29;20798;-70
2022/11/25 14:04:59;;;;;;;10.07;3.43;;;12.90;99.90;;;;;;4880674;29;20451;-71
2022/11/25 14:07:41;;;;;;;12.70;4.70;;;12.90;99.90;;;;;;4880920;29;20453;-71
2022/11/25 14:10:36;;;;;;;6.43;3.30;;;13.00;99.90;;;;;;4880695;29;20493;-72
2022/11/25 14:13:29;;;;;;;9.30;4.60;;;12.80;99.90;;;;;;4893651;29;20508;-72
2022/11/25 14:16:25;;;;;;;11.23;3.90;;;12.80;99.90;;;;;;4892571;29;20897;-71
2022/11/25 14:19:08;;;;;;;9.63;2.97;;;12.90;99.90;;;;;;4883149;29;20490;-70
2022/11/25 14:22:01;;;;;;;14.40;3.63;;;12.90;99.90;;;;;;4880705;29;20441;-71
2022/11/25 14:24:27;;;;;;;10.90;3.37;;;12.80;99.90;;;;;;4880854;29;20458;-79
2022/11/25 14:26:56;;;;;;;18.60;4.70;;;12.80;99.90;;;;;;4882822;29;20472;-71
2022/11/25 14:29:31;;;;;;;11.67;3.70;;;12.80;99.90;;;;;;4888088;29;20273;-75
2022/11/25 14:32:11;;;;;;;15.10;4.67;;;12.80;99.90;;;;;;4874088;29;21039;-71
2022/11/25 14:34:41;;;;;;;8.60;3.50;;;12.70;99.90;;;;;;4874378;29;20959;-71
2022/11/25 14:37:28;;;;;;;10.87;3.53;;;12.70;99.90;;;;;;4889460;29;21215;-70
2022/11/25 14:40:13;;;;;;;11.97;3.23;;;12.70;99.90;;;;;;4890033;29;20441;-72
2022/11/25 14:42:43;;;;;;;7.17;3.53;;;12.80;99.90;;;;;;4888506;29;20444;-72
2022/11/25 14:45:32;;;;;;;16.03;4.70;;;12.80;99.90;;;;;;4873990;29;20529;-72
2022/11/25 14:48:11;;;;;;;9.83;3.60;;;12.80;99.90;;;;;;4890019;29;20437;-72
2022/11/25 14:50:37;;;;;;;11.63;3.77;;;12.70;99.90;;;;;;4889895;29;20444;-73
2022/11/25 14:53:08;;;;;;;10.47;4.63;;;12.60;99.90;;;;;;4889836;29;20478;-74
2022/11/25 14:55:35;;;;;;;12.50;4.80;;;12.60;99.90;;;;;;4887980;29;20452;-73
2022/11/25 14:58:01;;;;;;;17.10;4.93;;;12.50;99.90;;;;;;4890773;29;20451;-71
2022/11/25 15:00:27;;;;;;;6.70;3.23;;;12.50;99.90;;;;;;4889260;29;20442;-71
2022/11/25 15:03:00;;;;;;;11.43;3.70;;;12.50;99.90;;;;;;4891775;29;20440;-70
2022/11/25 15:05:32;;;;;;;12.73;4.13;;;12.50;99.90;;;;;;4899989;29;20184;-71
2022/11/25 15:08:06;;;;;;;10.50;3.47;;;12.50;99.90;;;;;;4899826;29;20433;-71
2022/11/25 15:10:36;;;;;;;8.70;3.23;;;12.50;99.90;;;;;;4899736;29;20436;-71
2022/11/25 15:13:11;;;;;;;11.27;3.67;;;12.50;99.90;;;;;;4899662;29;20476;-71
2022/11/25 15:15:37;;;;;;;11.53;3.80;;;12.40;99.90;;;;;;4899707;29;21011;-71
2022/11/25 15:18:10;;;;;;;13.17;4.10;;;12.40;99.90;;;;;;4899644;29;20516;-71
2022/11/25 15:20:35;;;;;;;8.57;3.90;;;12.40;99.90;;;;;;4899751;29;20524;-71
2022/11/25 15:23:02;;;;;;;10.57;4.10;;;12.30;99.90;;;;;;4899481;29;20470;-71
2022/11/25 15:25:27;;;;;;;10.50;3.90;;;12.30;99.90;;;;;;4899664;29;20176;-71
2022/11/25 15:27:53;;;;;;;9.60;3.30;;;12.30;99.90;;;;;;4882697;29;20438;-71
2022/11/25 15:30:21;;;;;;;6.90;3.50;;;12.40;99.90;;;;;;4899306;29;20189;-70
2022/11/25 15:32:48;;;;;;;7.23;3.50;;;12.30;99.90;;;;;;4882403;29;20230;-71
2022/11/25 15:35:20;;;;;;;13.57;4.47;;;12.30;99.90;;;;;;4899351;29;20432;-71
2022/11/25 15:37:46;;;;;;;11.80;5.00;;;12.30;99.90;;;;;;4899335;29;20440;-71
2022/11/25 15:40:30;;;;;;;6.67;3.67;;;12.20;99.90;;;;;;4899352;29;20508;-71
2022/11/25 15:43:00;;;;;;;10.43;3.57;;;12.20;99.90;;;;;;4895936;29;20445;-72
2022/11/25 15:45:32;;;;;;;10.18;3.80;;;12.20;99.90;;;;;;4869890;29;21044;-71
2022/11/25 15:47:58;;;;;;;12.03;5.07;;;12.70;99.90;;;;;;4879134;29;20941;-70
2022/11/25 15:50:25;;;;;;;10.30;4.30;;;12.80;99.90;;;;;;4879017;29;20462;-72
2022/11/25 15:53:00;;;;;;;13.30;4.10;;;12.70;99.90;;;;;;4886315;29;20212;-73
2022/11/25 15:55:37;;;;;;;8.80;3.70;;;12.60;99.90;;;;;;4888729;29;20435;-74
2022/11/25 15:58:18;;;;;;;10.20;3.80;;;12.50;99.90;;;;;;4886924;29;20445;-74
2022/11/25 16:01:03;;;;;;;11.77;3.93;;;12.40;99.90;;;;;;4888718;29;20436;-74
2022/11/25 16:03:34;;;;;;;10.23;3.97;;;12.40;99.90;;;;;;4886310;29;20453;-73
2022/11/25 16:06:01;;;;;;;16.63;4.30;;;12.30;99.90;;;;;;4886621;29;20442;-74
2022/11/25 16:08:32;;;;;;;13.40;3.80;;;12.30;99.90;;;;;;4886632;29;20445;-74
2022/11/25 16:11:09;;;;;;;15.77;4.10;;;12.20;99.90;;;;;;4887988;29;20433;-74
2022/11/25 16:13:37;;;;;;;10.87;3.73;;;12.10;99.90;;;;;;4889692;29;20480;-74
2022/11/25 16:16:19;;;;;;;11.50;3.47;;;12.10;99.90;;;;;;4889199;29;20579;-74
2022/11/25 16:19:04;;;;;;;10.20;2.87;;;12.10;99.90;;;;;;4888738;29;20577;-74
2022/11/25 16:21:39;;;;;;;14.07;3.80;;;12.00;99.90;;;;;;4887525;29;20515;-74
2022/11/25 16:24:04;;;;;;;9.43;3.43;;;12.10;99.90;;;;;;4886414;29;20464;-73
2022/11/25 16:26:51;;;;;;;9.73;4.03;;;12.10;99.90;;;;;;4886746;29;20580;-73
2022/11/25 16:29:31;;;;;;;9.03;3.67;;;12.00;99.90;;;;;;4887563;29;20641;-72
2022/11/25 16:31:58;;;;;;;9.23;3.50;;;12.00;99.90;;;;;;4887284;29;20540;-73
2022/11/25 16:34:25;;;;;;;7.00;3.30;;;12.00;99.90;;;;;;4885915;29;20449;-72
2022/11/25 16:36:51;;;;;;;17.13;4.27;;;12.00;99.90;;;;;;4887266;29;20782;-73
2022/11/25 16:39:17;;;;;;;20.43;4.20;;;12.00;99.90;;;;;;4887803;29;20448;-73
2022/11/25 16:41:45;;;;;;;5.20;2.83;;;12.00;99.90;;;;;;4886547;29;21520;-72
2022/11/25 16:44:23;;;;;;;11.70;3.23;;;11.90;99.90;;;;;;4887896;29;20221;-72
2022/11/25 16:46:49;;;;;;;11.63;4.57;;;12.00;99.90;;;;;;4886472;29;20425;-72
2022/11/25 16:49:17;;;;;;;8.97;3.90;;;11.90;99.90;;;;;;4887478;29;20441;-74
2022/11/25 16:51:43;;;;;;;6.67;3.27;;;11.90;99.90;;;;;;4888490;29;20461;-73
2022/11/25 16:54:08;;;;;;;9.87;4.10;;;11.90;99.90;;;;;;4886320;29;20509;-73
2022/11/25 16:56:38;;;;;;;9.80;3.97;;;11.90;99.90;;;;;;4887716;29;20537;-73
2022/11/25 16:59:04;;;;;;;7.20;3.40;;;11.90;99.90;;;;;;4888286;29;20192;-73
2022/11/25 17:01:31;;;;;;;6.37;2.97;;;11.90;99.90;;;;;;4886516;29;20934;-73
2022/11/25 17:03:57;;;;;;;9.60;3.43;;;11.90;99.90;;;;;;4886430;29;20433;-73
2022/11/25 17:06:25;;;;;;;10.57;3.30;;;11.90;99.90;;;;;;4888299;29;20484;-73
2022/11/25 17:08:51;;;;;;;8.47;3.70;;;11.90;99.90;;;;;;4886461;29;20256;-73
2022/11/25 17:11:38;;;;;;;18.33;4.10;;;11.90;99.90;;;;;;4887253;29;20441;-72
2022/11/25 17:14:10;;;;;;;12.13;4.47;;;11.90;99.90;;;;;;4878102;29;20485;-73
2022/11/25 17:16:36;;;;;;;7.13;3.20;;;11.90;99.90;;;;;;4878450;29;20769;-73